createdAt,value
2018-01-05T00:01:09.645Z,0
2018-01-05T00:02:18.369Z,0
2018-01-05T00:03:28.474Z,0
2018-01-05T00:04:38.720Z,0
2018-01-05T00:05:48.016Z,0
2018-01-05T00:06:56.172Z,0
2018-01-05T06:11:41.971Z,0
2018-01-05T06:12:47.671Z,0
2018-01-05T06:13:54.199Z,0
2018-01-05T06:14:59.860Z,0
2018-01-05T06:16:05.881Z,0
2018-01-05T06:18:20.527Z,0
2018-01-05T06:19:26.340Z,0
2018-01-05T06:20:33.321Z,0
2018-01-05T06:21:40.994Z,0
2018-01-05T06:22:48.930Z,0
2018-01-05T06:23:54.637Z,0
2018-01-05T06:25:02.691Z,0
2018-01-05T06:26:09.060Z,0
2018-01-05T06:27:15.662Z,0
2018-01-05T06:28:22.681Z,0
2018-01-05T06:29:29.174Z,0
2018-01-05T06:30:35.702Z,0
2018-01-05T06:31:41.650Z,0
2018-01-05T06:32:47.878Z,0
2018-01-05T06:33:54.474Z,0
2018-01-05T06:35:00.485Z,0
2018-01-05T06:36:06.156Z,0
2018-01-05T06:37:12.274Z,0
2018-01-05T06:38:18.360Z,0
2018-01-05T06:39:24.350Z,0
2018-01-05T06:40:30.180Z,0
2018-01-05T06:41:35.128Z,0
2018-01-05T06:42:39.690Z,0
2018-01-05T06:43:45.077Z,0
2018-01-05T06:44:50.257Z,0
2018-01-05T06:45:55.243Z,0
2018-01-05T06:46:59.740Z,0
2018-01-05T06:48:03.685Z,0
2018-01-05T06:49:07.325Z,0
2018-01-05T06:50:10.859Z,0
2018-01-05T06:51:13.929Z,0
2018-01-05T06:52:16.894Z,0
2018-01-05T06:53:22.502Z,0
2018-01-05T06:54:28.162Z,0
2018-01-05T06:55:33.796Z,0
2018-01-05T06:56:39.250Z,0
2018-01-05T06:57:44.842Z,0
2018-01-05T06:58:50.124Z,0
2018-01-05T06:59:55.494Z,0
2018-01-05T07:01:00.908Z,0
2018-01-05T07:02:06.713Z,0
2018-01-05T07:03:11.960Z,4
2018-01-05T07:04:17.196Z,4
2018-01-05T07:05:23.050Z,0
2018-01-05T07:06:29.605Z,4
2018-01-05T07:07:36.157Z,4
2018-01-05T07:08:42.404Z,4
2018-01-05T07:09:48.421Z,4
2018-01-05T07:10:54.271Z,4
2018-01-05T07:12:00.285Z,8
2018-01-05T07:13:06.531Z,8
2018-01-05T07:14:11.897Z,8
2018-01-05T07:15:17.593Z,8
2018-01-05T07:16:23.565Z,12
2018-01-05T07:17:28.823Z,12
2018-01-05T07:18:34.362Z,12
2018-01-05T07:19:37.909Z,16
2018-01-05T07:20:42.941Z,28
2018-01-05T07:21:48.294Z,28
2018-01-05T07:22:53.972Z,44
2018-01-05T07:23:59.559Z,48
2018-01-05T07:25:05.221Z,48
2018-01-05T07:26:10.738Z,52
2018-01-05T07:27:15.564Z,60
2018-01-05T07:28:21.021Z,60
2018-01-05T07:29:26.904Z,56
2018-01-05T07:30:32.423Z,52
2018-01-05T07:31:38.235Z,44
2018-01-05T07:32:43.602Z,64
2018-01-05T07:33:49.211Z,40
2018-01-05T07:34:55.165Z,32
2018-01-05T07:36:00.598Z,44
2018-01-05T07:37:06.596Z,56
2018-01-05T07:38:12.229Z,64
2018-01-05T07:39:17.183Z,44
2018-01-05T07:40:22.900Z,48
2018-01-05T07:41:28.103Z,36
2018-01-05T07:42:33.802Z,48
2018-01-05T07:43:39.541Z,44
2018-01-05T07:44:44.952Z,40
2018-01-05T07:45:50.302Z,44
2018-01-05T07:46:57.025Z,44
2018-01-05T07:48:03.338Z,44
2018-01-05T07:49:09.634Z,56
2018-01-05T07:50:15.052Z,96
2018-01-05T07:51:21.405Z,188
2018-01-05T07:52:27.771Z,224
2018-01-05T07:53:33.526Z,212
2018-01-05T07:54:39.768Z,232
2018-01-05T07:55:45.509Z,336
2018-01-05T07:56:51.187Z,356
2018-01-05T07:57:57.138Z,384
2018-01-05T07:59:01.211Z,380
2018-01-05T08:00:04.848Z,540
2018-01-05T08:01:08.401Z,608
2018-01-05T08:02:11.860Z,540
2018-01-05T08:03:15.070Z,756
2018-01-05T08:04:19.133Z,1168
2018-01-05T08:05:23.884Z,1364
2018-01-05T08:06:28.895Z,1340
2018-01-05T08:07:34.421Z,1320
2018-01-05T08:08:39.806Z,1356
2018-01-05T08:09:44.118Z,1512
2018-01-05T08:10:49.933Z,1676
2018-01-05T08:11:55.226Z,1748
2018-01-05T08:13:00.698Z,1772
2018-01-05T08:14:05.476Z,1712
2018-01-05T08:15:10.067Z,1620
2018-01-05T08:16:15.182Z,1572
2018-01-05T08:17:19.494Z,1536
2018-01-05T08:18:23.709Z,1432
2018-01-05T08:19:28.062Z,1436
2018-01-05T08:20:33.204Z,1492
2018-01-05T08:21:38.083Z,1536
2018-01-05T08:22:43.220Z,1580
2018-01-05T08:23:46.087Z,1652
2018-01-05T08:24:49.455Z,1664
2018-01-05T08:25:53.353Z,1680
2018-01-05T08:26:56.869Z,1744
2018-01-05T08:28:00.318Z,1808
2018-01-05T08:29:06.192Z,1844
2018-01-05T08:30:11.629Z,1872
2018-01-05T08:31:17.073Z,1924
2018-01-05T08:32:22.728Z,1976
2018-01-05T08:33:28.361Z,1976
2018-01-05T08:34:34.446Z,1888
2018-01-05T08:35:40.574Z,1832
2018-01-05T08:36:46.674Z,1836
2018-01-05T08:37:52.822Z,1868
2018-01-05T08:38:58.080Z,1940
2018-01-05T08:40:02.913Z,2076
2018-01-05T08:41:06.912Z,2208
2018-01-05T08:42:10.550Z,2372
2018-01-05T08:43:13.721Z,2592
2018-01-05T08:44:16.785Z,2772
2018-01-05T08:45:19.776Z,2812
2018-01-05T08:46:22.618Z,2948
2018-01-05T08:47:27.105Z,3284
2018-01-05T08:48:31.932Z,3600
2018-01-05T08:49:37.616Z,3740
2018-01-05T08:50:43.485Z,3688
2018-01-05T08:51:49.084Z,3564
2018-01-05T08:52:54.768Z,3472
2018-01-05T08:54:00.437Z,3592
2018-01-05T08:55:06.266Z,3572
2018-01-05T08:56:12.128Z,3468
2018-01-05T08:57:16.892Z,3296
2018-01-05T08:58:23.031Z,3116
2018-01-05T08:59:26.571Z,3032
2018-01-05T09:00:29.639Z,3016
2018-01-05T09:01:32.780Z,3120
2018-01-05T09:02:35.982Z,3296
2018-01-05T09:03:39.321Z,3392
2018-01-05T09:04:43.564Z,3388
2018-01-05T09:05:48.842Z,3296
2018-01-05T09:06:54.093Z,3204
2018-01-05T09:07:58.658Z,3212
2018-01-05T09:09:03.992Z,3276
2018-01-05T09:10:08.743Z,3348
2018-01-05T09:11:15.348Z,3632
2018-01-05T09:12:21.497Z,3724
2018-01-05T09:13:27.672Z,3936
2018-01-05T09:14:34.308Z,3976
2018-01-05T09:15:40.420Z,4240
2018-01-05T09:16:46.395Z,4756
2018-01-05T09:17:49.819Z,5020
2018-01-05T09:18:52.838Z,5168
2018-01-05T09:19:55.689Z,5556
2018-01-05T09:20:58.547Z,5640
2018-01-05T09:22:01.359Z,5372
2018-01-05T09:23:05.996Z,4952
2018-01-05T09:24:10.708Z,4788
2018-01-05T09:25:16.416Z,4556
2018-01-05T09:26:21.825Z,4428
2018-01-05T09:27:27.173Z,4500
2018-01-05T09:28:32.244Z,4532
2018-01-05T09:29:37.538Z,4736
2018-01-05T09:30:43.426Z,5328
2018-01-05T09:31:48.468Z,5852
2018-01-05T09:32:54.808Z,6068
2018-01-05T09:34:01.519Z,6736
2018-01-05T09:35:06.114Z,8204
2018-01-05T09:36:09.218Z,9880
2018-01-05T09:37:12.543Z,9616
2018-01-05T09:38:15.897Z,9480
2018-01-05T09:39:19.146Z,8436
2018-01-05T09:40:22.488Z,6944
2018-01-05T09:41:27.954Z,5856
2018-01-05T09:42:34.494Z,5828
2018-01-05T09:43:40.174Z,5764
2018-01-05T09:44:45.400Z,5800
2018-01-05T09:45:50.838Z,5976
2018-01-05T09:46:57.401Z,6304
2018-01-05T09:48:03.231Z,6560
2018-01-05T09:49:09.697Z,6604
2018-01-05T09:50:15.387Z,6544
2018-01-05T09:51:21.237Z,6352
2018-01-05T09:52:26.455Z,6164
2018-01-05T09:53:31.654Z,6464
2018-01-05T09:54:38.278Z,7220
2018-01-05T09:55:43.730Z,7580
2018-01-05T09:56:48.970Z,7480
2018-01-05T09:57:54.336Z,7428
2018-01-05T09:59:00.882Z,6976
2018-01-05T10:00:06.702Z,5940
2018-01-05T10:01:12.763Z,5640
2018-01-05T10:02:19.217Z,5112
2018-01-05T10:03:25.230Z,4404
2018-01-05T10:04:31.244Z,3024
2018-01-05T10:05:37.732Z,3460
2018-01-05T10:06:43.107Z,4200
2018-01-05T10:07:49.094Z,4456
2018-01-05T10:08:55.346Z,4776
2018-01-05T10:10:01.052Z,4588
2018-01-05T10:11:06.157Z,4448
2018-01-05T10:12:10.458Z,4612
2018-01-05T10:13:16.010Z,4864
2018-01-05T10:14:21.463Z,4952
2018-01-05T10:15:27.680Z,4828
2018-01-05T10:16:33.277Z,4580
2018-01-05T10:17:40.427Z,4592
2018-01-05T10:18:46.947Z,4544
2018-01-05T10:19:53.111Z,3796
2018-01-05T10:20:58.981Z,3672
2018-01-05T10:22:05.064Z,4076
2018-01-05T10:23:10.066Z,3976
2018-01-05T10:24:13.660Z,4028
2018-01-05T10:25:16.406Z,4112
2018-01-05T10:26:19.214Z,4232
2018-01-05T10:27:21.934Z,4788
2018-01-05T10:28:24.572Z,5228
2018-01-05T10:29:29.564Z,5324
2018-01-05T10:30:35.779Z,5172
2018-01-05T10:31:41.566Z,5084
2018-01-05T10:32:46.877Z,5020
2018-01-05T10:33:52.384Z,5168
2018-01-05T10:34:59.051Z,5304
2018-01-05T10:36:04.940Z,5300
2018-01-05T10:37:11.213Z,4684
2018-01-05T10:38:16.059Z,4112
2018-01-05T10:39:21.170Z,4048
2018-01-05T10:40:27.967Z,4740
2018-01-05T10:41:34.082Z,4152
2018-01-05T10:42:40.018Z,3732
2018-01-05T10:43:46.428Z,3964
2018-01-05T10:44:53.093Z,4200
2018-01-05T10:45:58.661Z,3928
2018-01-05T10:47:02.442Z,4000
2018-01-05T10:48:05.386Z,4184
2018-01-05T10:49:08.149Z,4252
2018-01-05T10:50:10.907Z,3652
2018-01-05T10:51:13.718Z,3744
2018-01-05T10:52:16.428Z,3404
2018-01-05T10:53:19.090Z,3500
2018-01-05T10:54:21.860Z,3824
2018-01-05T10:55:24.464Z,3744
2018-01-05T10:56:27.034Z,4440
2018-01-05T10:57:29.684Z,4448
2018-01-05T10:58:32.262Z,3896
2018-01-05T10:59:36.875Z,3608
2018-01-05T11:00:42.308Z,4008
2018-01-05T11:01:47.866Z,4540
2018-01-05T11:02:53.296Z,4700
2018-01-05T11:03:59.781Z,4348
2018-01-05T11:05:06.331Z,3512
2018-01-05T11:06:12.888Z,2908
2018-01-05T11:07:18.261Z,2640
2018-01-05T11:08:24.054Z,2332
2018-01-05T11:09:29.179Z,3180
2018-01-05T11:10:35.108Z,2996
2018-01-05T11:11:40.136Z,3016
2018-01-05T11:12:45.574Z,2812
2018-01-05T11:13:52.039Z,2588
2018-01-05T11:14:57.901Z,3128
2018-01-05T11:16:03.767Z,3664
2018-01-05T11:17:09.773Z,2916
2018-01-05T11:18:15.281Z,2900
2018-01-05T11:19:21.624Z,2728
2018-01-05T11:20:27.456Z,2880
2018-01-05T11:21:33.464Z,3132
2018-01-05T11:22:38.553Z,2940
2018-01-05T11:23:44.250Z,2944
2018-01-05T11:24:49.846Z,3488
2018-01-05T11:25:55.232Z,3732
2018-01-05T11:27:01.061Z,4100
2018-01-05T11:28:06.980Z,4156
2018-01-05T11:29:14.838Z,3500
2018-01-05T11:30:20.988Z,3408
2018-01-05T11:31:26.906Z,3916
2018-01-05T11:32:33.656Z,4620
2018-01-05T11:33:38.973Z,4848
2018-01-05T11:34:43.808Z,4796
2018-01-05T11:35:47.450Z,4460
2018-01-05T11:36:50.390Z,4580
2018-01-05T11:37:53.325Z,4848
2018-01-05T11:38:56.174Z,4936
2018-01-05T11:39:58.894Z,5476
2018-01-05T11:41:03.514Z,5780
2018-01-05T11:42:08.087Z,5284
2018-01-05T11:43:12.858Z,5300
2018-01-05T11:44:18.521Z,5552
2018-01-05T11:45:23.568Z,5624
2018-01-05T11:46:28.775Z,5348
2018-01-05T11:47:32.537Z,4468
2018-01-05T11:48:36.138Z,3796
2018-01-05T11:49:39.534Z,4080
2018-01-05T11:50:42.501Z,4536
2018-01-05T11:51:45.495Z,4900
2018-01-05T11:52:48.374Z,4752
2018-01-05T11:53:53.242Z,4424
2018-01-05T11:54:58.507Z,4612
2018-01-05T11:56:03.608Z,4716
2018-01-05T11:57:08.909Z,4488
2018-01-05T11:58:13.864Z,4392
2018-01-05T11:59:19.687Z,4156
2018-01-05T12:00:25.444Z,4292
2018-01-05T12:01:31.460Z,4612
2018-01-05T12:02:36.799Z,5140
2018-01-05T12:03:42.856Z,5112
2018-01-05T12:04:48.212Z,4648
2018-01-05T12:05:54.382Z,4072
2018-01-05T12:06:59.746Z,3924
2018-01-05T12:08:05.512Z,4168
2018-01-05T12:09:11.100Z,4200
2018-01-05T12:10:17.116Z,3740
2018-01-05T12:11:22.716Z,4100
2018-01-05T12:12:28.335Z,4356
2018-01-05T12:13:34.410Z,4492
2018-01-05T12:14:39.706Z,4508
2018-01-05T12:15:45.477Z,4432
2018-01-05T12:16:51.483Z,4708
2018-01-05T12:17:57.423Z,4204
2018-01-05T12:19:03.199Z,3996
2018-01-05T12:20:09.078Z,4424
2018-01-05T12:21:15.037Z,4368
2018-01-05T12:22:20.803Z,4152
2018-01-05T12:23:26.737Z,4428
2018-01-05T12:24:31.403Z,4832
2018-01-05T12:25:36.451Z,4884
2018-01-05T12:26:42.982Z,5000
2018-01-05T12:27:49.956Z,4860
2018-01-05T12:28:55.588Z,4568
2018-01-05T12:30:01.771Z,4528
2018-01-05T12:31:07.770Z,4604
2018-01-05T12:32:13.593Z,3652
2018-01-05T12:33:19.045Z,2872
2018-01-05T12:34:25.590Z,2864
2018-01-05T12:35:28.899Z,2888
2018-01-05T12:36:31.751Z,2984
2018-01-05T12:37:34.630Z,3488
2018-01-05T12:38:37.470Z,4004
2018-01-05T12:39:40.313Z,4052
2018-01-05T12:40:43.114Z,3972
2018-01-05T12:41:45.832Z,4052
2018-01-05T12:42:48.584Z,4072
2018-01-05T12:43:51.248Z,4256
2018-01-05T12:44:53.815Z,4408
2018-01-05T12:45:56.487Z,4620
2018-01-05T12:46:59.661Z,4812
2018-01-05T12:48:02.344Z,5384
2018-01-05T12:49:05.143Z,5788
2018-01-05T12:50:07.770Z,5272
2018-01-05T12:51:10.380Z,4868
2018-01-05T12:52:12.937Z,4664
2018-01-05T12:53:16.717Z,4460
2018-01-05T12:54:21.268Z,4516
2018-01-05T12:55:25.508Z,4380
2018-01-05T12:56:30.002Z,4116
2018-01-05T12:57:35.157Z,4000
2018-01-05T12:58:40.136Z,4384
2018-01-05T12:59:45.433Z,4908
2018-01-05T13:00:51.264Z,5456
2018-01-05T13:01:56.969Z,5556
2018-01-05T13:03:02.574Z,5264
2018-01-05T13:04:08.483Z,5020
2018-01-05T13:05:13.332Z,4848
2018-01-05T13:06:17.533Z,4768
2018-01-05T13:07:22.508Z,4552
2018-01-05T13:08:27.548Z,4480
2018-01-05T13:09:32.327Z,4308
2018-01-05T13:10:37.192Z,3824
2018-01-05T13:11:43.238Z,3572
2018-01-05T13:12:48.834Z,3448
2018-01-05T13:13:54.111Z,3316
2018-01-05T13:14:59.094Z,3520
2018-01-05T13:16:05.107Z,3812
2018-01-05T13:17:10.775Z,3692
2018-01-05T13:18:16.848Z,3464
2018-01-05T13:19:22.706Z,3300
2018-01-05T13:20:27.981Z,3216
2018-01-05T13:21:34.392Z,3216
2018-01-05T13:22:40.300Z,3336
2018-01-05T13:23:45.619Z,3512
2018-01-05T13:24:50.728Z,3576
2018-01-05T13:25:56.086Z,3572
2018-01-05T13:27:02.079Z,3500
2018-01-05T13:28:07.317Z,3412
2018-01-05T13:29:13.451Z,3320
2018-01-05T13:30:18.759Z,3224
2018-01-05T13:31:24.925Z,3008
2018-01-05T13:32:31.053Z,3000
2018-01-05T13:33:36.924Z,2904
2018-01-05T13:34:42.734Z,2632
2018-01-05T13:35:48.708Z,2428
2018-01-05T13:36:54.050Z,2336
2018-01-05T13:37:59.714Z,2412
2018-01-05T13:39:05.174Z,2900
2018-01-05T13:40:10.762Z,3148
2018-01-05T13:41:14.459Z,3184
2018-01-05T13:42:17.497Z,3272
2018-01-05T13:43:20.325Z,3252
2018-01-05T13:44:23.179Z,2932
2018-01-05T13:45:25.792Z,2548
2018-01-05T13:46:28.506Z,2448
2018-01-05T13:47:31.321Z,2604
2018-01-05T13:48:34.233Z,2660
2018-01-05T13:49:37.013Z,2720
2018-01-05T13:50:39.773Z,2836
2018-01-05T13:51:42.510Z,2768
2018-01-05T13:52:45.858Z,2708
2018-01-05T13:53:52.340Z,2624
2018-01-05T13:54:58.138Z,2408
2018-01-05T13:56:03.776Z,2252
2018-01-05T13:57:08.667Z,2200
2018-01-05T13:58:14.188Z,2176
2018-01-05T13:59:19.574Z,2168
2018-01-05T14:00:24.858Z,2200
2018-01-05T14:01:30.102Z,2240
2018-01-05T14:02:36.278Z,2180
2018-01-05T14:03:41.533Z,2184
2018-01-05T14:04:48.412Z,2256
2018-01-05T14:05:54.118Z,2480
2018-01-05T14:07:02.297Z,2664
2018-01-05T14:08:10.007Z,2792
2018-01-05T14:10:23.772Z,2656
2018-01-05T14:11:29.187Z,2728
2018-01-05T14:12:34.416Z,2984
2018-01-05T14:13:39.296Z,3532
2018-01-05T14:14:44.535Z,3712
2018-01-05T14:15:49.545Z,3788
2018-01-05T14:16:55.252Z,3696
2018-01-05T14:18:01.942Z,3408
2018-01-05T14:19:07.571Z,3204
2018-01-05T14:20:14.028Z,2968
2018-01-05T14:21:18.909Z,3436
2018-01-05T14:22:24.030Z,3012
2018-01-05T14:23:29.717Z,2992
2018-01-05T14:24:35.850Z,2924
2018-01-05T14:25:41.979Z,2796
2018-01-05T14:26:47.242Z,2972
2018-01-05T14:27:52.090Z,2588
2018-01-05T14:28:57.662Z,2632
2018-01-05T14:30:03.423Z,2604
2018-01-05T14:31:09.468Z,2572
2018-01-05T14:32:15.632Z,2332
2018-01-05T14:33:20.904Z,2404
2018-01-05T14:34:27.736Z,2384
2018-01-05T14:35:33.672Z,2396
2018-01-05T14:36:39.822Z,2316
2018-01-05T14:37:45.405Z,2360
2018-01-05T14:38:50.211Z,2324
2018-01-05T14:39:55.764Z,2268
2018-01-05T14:41:02.148Z,2220
2018-01-05T14:42:06.405Z,2192
2018-01-05T14:43:10.602Z,1996
2018-01-05T14:44:14.971Z,1860
2018-01-05T14:45:18.860Z,1804
2018-01-05T14:46:23.247Z,1840
2018-01-05T14:47:29.459Z,1816
2018-01-05T14:48:35.286Z,1656
2018-01-05T14:49:40.648Z,1452
2018-01-05T14:50:46.428Z,1364
2018-01-05T14:51:51.858Z,1360
2018-01-05T14:52:58.474Z,1340
2018-01-05T14:54:04.092Z,1324
2018-01-05T14:55:09.852Z,1292
2018-01-05T14:56:15.498Z,1232
2018-01-05T14:57:20.514Z,1188
2018-01-05T14:58:25.967Z,1136
2018-01-05T14:59:31.451Z,1084
2018-01-05T15:00:37.125Z,1024
2018-01-05T15:01:42.664Z,984
2018-01-05T15:02:47.966Z,944
2018-01-05T15:03:52.637Z,924
2018-01-05T15:04:59.194Z,896
2018-01-05T15:06:05.154Z,844
2018-01-05T15:07:11.892Z,804
2018-01-05T15:08:17.229Z,768
2018-01-05T15:09:22.839Z,748
2018-01-05T15:10:28.644Z,724
2018-01-05T15:11:34.152Z,696
2018-01-05T15:12:39.758Z,664
2018-01-05T15:13:44.213Z,632
2018-01-05T15:14:49.683Z,592
2018-01-05T15:15:54.054Z,548
2018-01-05T15:16:58.881Z,516
2018-01-05T15:18:03.933Z,480
2018-01-05T15:19:09.710Z,436
2018-01-05T15:20:15.287Z,400
2018-01-05T15:21:19.203Z,372
2018-01-05T15:22:25.809Z,344
2018-01-05T15:23:30.197Z,324
2018-01-05T15:24:35.378Z,288
2018-01-05T15:25:40.786Z,252
2018-01-05T15:26:46.644Z,228
2018-01-05T15:27:51.957Z,216
2018-01-05T15:28:57.382Z,208
2018-01-05T15:30:03.074Z,192
2018-01-05T15:31:09.010Z,180
2018-01-05T15:32:14.832Z,172
2018-01-05T15:33:20.110Z,164
2018-01-05T15:34:25.758Z,156
2018-01-05T15:35:30.764Z,144
2018-01-05T15:36:35.620Z,128
2018-01-05T15:37:40.604Z,112
2018-01-05T15:38:45.340Z,108
2018-01-05T15:39:46.946Z,104
2018-01-05T15:40:51.977Z,100
2018-01-05T15:41:58.341Z,88
2018-01-05T15:43:03.820Z,76
2018-01-05T15:44:10.566Z,68
2018-01-05T15:45:16.660Z,64
2018-01-05T15:46:22.681Z,56
2018-01-05T15:47:28.496Z,52
2018-01-05T15:48:33.673Z,44
2018-01-05T15:49:39.148Z,36
2018-01-05T15:50:43.653Z,32
2018-01-05T15:51:46.941Z,28
2018-01-05T15:52:50.875Z,24
2018-01-05T15:53:53.985Z,24
2018-01-05T15:54:56.969Z,20
2018-01-05T15:55:59.530Z,16
2018-01-05T15:57:02.234Z,12
2018-01-05T15:58:04.811Z,12
2018-01-05T15:59:09.893Z,8
2018-01-05T16:00:15.996Z,8
2018-01-05T16:01:21.810Z,8
2018-01-05T16:02:27.228Z,4
2018-01-05T16:03:32.922Z,8
2018-01-05T16:04:38.494Z,4
2018-01-05T16:05:44.537Z,4
2018-01-05T16:06:49.099Z,4
2018-01-05T16:07:55.277Z,0
2018-01-05T16:09:01.287Z,4
2018-01-05T16:10:06.714Z,4
2018-01-05T16:11:11.552Z,0
2018-01-05T16:12:14.956Z,0
2018-01-05T16:13:18.396Z,0
2018-01-05T16:14:21.691Z,0
2018-01-05T16:15:24.924Z,0
2018-01-05T16:16:29.158Z,0
2018-01-05T16:17:31.685Z,0
2018-01-05T16:18:37.948Z,0
2018-01-05T16:19:43.927Z,0
2018-01-05T16:20:50.564Z,0
2018-01-05T16:21:57.385Z,0
2018-01-05T16:23:03.484Z,0
2018-01-05T16:24:06.671Z,0
2018-01-05T16:25:09.727Z,0
2018-01-05T16:26:12.884Z,0
2018-01-05T16:27:15.966Z,0
2018-01-05T16:28:19.684Z,0
2018-01-05T16:29:25.502Z,0
2018-01-05T16:30:30.857Z,0
2018-01-05T16:31:36.559Z,0
2018-01-05T16:32:43.720Z,0
2018-01-05T16:33:48.113Z,0
2018-01-05T16:34:54.422Z,0
2018-01-05T16:36:01.298Z,0
2018-01-05T16:37:07.726Z,0
2018-01-05T16:38:13.588Z,0
2018-01-05T16:39:19.705Z,0
2018-01-05T16:40:25.578Z,0
2018-01-05T16:41:31.054Z,0
2018-01-05T16:42:36.647Z,0
2018-01-05T16:43:41.703Z,0
2018-01-05T16:44:46.992Z,0
2018-01-05T16:45:51.854Z,0
2018-01-05T16:46:57.025Z,0
2018-01-05T16:48:01.881Z,0
2018-01-05T16:49:07.117Z,0
2018-01-05T16:50:13.544Z,0
2018-01-05T16:51:18.747Z,0
2018-01-05T16:52:23.972Z,0
2018-01-05T16:53:29.033Z,0
2018-01-05T16:54:33.974Z,0
2018-01-05T16:55:38.781Z,0
2018-01-05T16:56:43.316Z,0
2018-01-05T16:57:48.303Z,0
2018-01-05T16:58:53.303Z,0
2018-01-05T16:59:58.243Z,0
2018-01-05T17:01:03.437Z,0
2018-01-05T17:02:08.449Z,0
2018-01-05T17:03:13.053Z,0
2018-01-05T17:04:18.640Z,0
2018-01-05T17:05:23.973Z,0
2018-01-05T17:06:29.210Z,0
2018-01-05T17:07:34.384Z,0
2018-01-05T17:08:38.404Z,0
2018-01-05T17:09:43.832Z,0
2018-01-05T17:10:48.750Z,0
2018-01-05T17:11:52.132Z,0
2018-01-05T17:12:55.416Z,0
2018-01-05T17:13:58.491Z,0
2018-01-05T17:15:01.414Z,0
2018-01-05T17:16:04.107Z,0
2018-01-05T17:17:07.348Z,0
2018-01-05T17:18:13.018Z,0
2018-01-05T17:19:18.741Z,0
2018-01-05T17:20:24.450Z,0
2018-01-05T17:21:51.017Z,0
2018-01-05T17:22:56.812Z,0
2018-01-05T17:24:51.211Z,0
2018-01-05T17:25:54.597Z,0
2018-01-05T17:26:57.858Z,0
2018-01-05T17:28:00.996Z,0
2018-01-05T17:29:03.953Z,0
2018-01-05T17:30:09.705Z,0
2018-01-05T17:31:14.844Z,0
2018-01-05T17:32:20.609Z,0
2018-01-05T17:33:26.275Z,0
2018-01-05T17:34:32.339Z,0
2018-01-05T17:35:37.861Z,0
2018-01-05T17:36:42.724Z,0
2018-01-05T17:37:48.174Z,0
2018-01-05T17:38:53.399Z,0
2018-01-05T17:39:59.338Z,0
2018-01-05T17:41:04.244Z,0
2018-01-05T17:42:06.989Z,0
2018-01-05T17:43:09.546Z,0
2018-01-05T17:44:12.126Z,0
2018-01-05T17:45:14.602Z,0
2018-01-05T17:46:17.194Z,0
2018-01-05T17:47:21.505Z,0
2018-01-05T17:48:27.254Z,0
2018-01-05T17:49:32.916Z,0
2018-01-05T17:50:38.938Z,0
2018-01-05T17:51:44.528Z,0
2018-01-05T17:52:50.722Z,0
2018-01-05T17:53:56.184Z,0
2018-01-05T17:55:01.519Z,0
2018-01-05T17:56:07.637Z,0
2018-01-05T17:57:13.699Z,0
2018-01-05T17:58:18.604Z,0
2018-01-05T17:59:22.880Z,0
2018-01-05T18:00:26.566Z,0
2018-01-05T18:01:30.135Z,0
2018-01-05T18:02:33.891Z,0
2018-01-05T18:03:37.227Z,0
2018-01-05T18:04:40.442Z,0
2018-01-05T18:05:45.241Z,0
2018-01-05T18:06:50.290Z,0
2018-01-05T18:07:55.259Z,0
2018-01-05T18:09:00.081Z,0
2018-01-05T18:10:04.941Z,0
2018-01-05T18:11:10.410Z,0
2018-01-05T18:12:15.982Z,0
2018-01-05T18:13:22.677Z,0
2018-01-05T18:14:28.636Z,0
2018-01-05T18:15:34.503Z,0
2018-01-05T18:16:39.812Z,0
2018-01-05T18:17:46.265Z,0
2018-01-05T18:18:51.588Z,0
2018-01-05T18:19:56.510Z,0
2018-01-05T18:21:01.875Z,0
2018-01-05T18:22:06.856Z,0
2018-01-05T18:23:11.642Z,0
2018-01-05T18:24:16.828Z,0
2018-01-05T18:25:21.364Z,0
2018-01-05T18:26:25.820Z,0
2018-01-05T18:27:30.454Z,0
2018-01-05T18:28:36.273Z,0
2018-01-05T18:29:42.730Z,0
2018-01-05T18:30:48.512Z,0
2018-01-05T18:31:54.260Z,0
2018-01-05T18:33:00.977Z,0
2018-01-05T18:34:07.230Z,0
2018-01-05T18:35:13.018Z,0
2018-01-05T18:36:18.494Z,0
2018-01-05T18:37:25.054Z,0
2018-01-05T18:38:31.312Z,0
2018-01-05T18:39:37.287Z,0
2018-01-05T18:40:41.457Z,0
2018-01-05T18:41:46.839Z,0
2018-01-05T18:42:49.837Z,0
2018-01-05T18:43:52.907Z,0
2018-01-05T18:44:55.914Z,0
2018-01-05T18:45:58.960Z,0
2018-01-05T18:47:02.253Z,0
2018-01-05T18:48:06.286Z,0
2018-01-05T18:49:12.311Z,0
2018-01-05T18:50:18.399Z,0
2018-01-05T18:51:24.305Z,0
2018-01-05T18:52:30.479Z,0
2018-01-05T18:53:35.937Z,0
2018-01-05T18:54:41.181Z,0
2018-01-05T18:55:46.194Z,0
2018-01-05T18:56:52.162Z,0
2018-01-05T18:57:57.748Z,0
2018-01-05T18:59:03.377Z,0
2018-01-05T19:00:10.505Z,0
2018-01-05T19:01:15.875Z,0
2018-01-05T19:02:22.161Z,0
2018-01-05T19:03:28.205Z,0
2018-01-05T19:04:33.317Z,0
2018-01-05T19:05:39.387Z,0
2018-01-05T19:06:44.463Z,0
2018-01-05T19:07:49.135Z,0
2018-01-05T19:08:54.166Z,0
2018-01-05T19:09:59.890Z,0
2018-01-05T19:11:05.940Z,0
2018-01-05T19:12:11.940Z,0
2018-01-05T19:13:17.625Z,0
2018-01-05T19:14:23.409Z,0
2018-01-05T19:15:29.248Z,0
2018-01-05T19:16:35.900Z,0
2018-01-05T19:17:41.431Z,0
2018-01-05T19:18:47.337Z,0
2018-01-05T19:19:52.903Z,0
2018-01-05T19:20:58.701Z,0
2018-01-05T19:22:03.307Z,0
2018-01-05T19:23:07.248Z,0
2018-01-05T19:24:11.165Z,0
2018-01-05T19:25:14.151Z,0
2018-01-05T19:26:17.054Z,0
2018-01-05T19:27:19.915Z,0
2018-01-05T19:28:23.264Z,0
2018-01-05T19:29:27.540Z,0
2018-01-05T19:30:31.393Z,0
2018-01-05T19:31:38.192Z,0
2018-01-05T19:32:44.083Z,0
2018-01-05T19:33:50.038Z,0
2018-01-05T19:34:56.186Z,0
2018-01-05T19:36:01.745Z,0
2018-01-05T19:37:08.050Z,0
2018-01-05T19:38:13.543Z,0
2018-01-05T19:39:18.074Z,0
2018-01-05T19:40:23.571Z,0
2018-01-05T19:41:29.225Z,0
2018-01-05T19:42:34.862Z,0
2018-01-05T19:43:39.578Z,0
2018-01-05T19:44:44.033Z,0
2018-01-05T19:45:48.441Z,0
2018-01-05T19:46:51.998Z,0
2018-01-05T19:47:55.544Z,0
2018-01-05T19:48:58.486Z,0
2018-01-05T19:50:01.497Z,0
2018-01-05T19:51:04.447Z,0
2018-01-05T19:52:08.092Z,0
2018-01-05T19:53:12.768Z,0
2018-01-05T19:54:17.019Z,0
2018-01-05T19:55:22.213Z,0
2018-01-05T19:56:27.988Z,0
2018-01-05T19:57:33.703Z,0
2018-01-05T19:58:38.546Z,0
2018-01-05T19:59:42.545Z,0
2018-01-05T20:00:46.385Z,0
2018-01-05T20:01:50.204Z,0
2018-01-05T20:02:53.949Z,0
2018-01-05T20:03:57.583Z,0
2018-01-05T20:05:01.512Z,0
2018-01-05T20:06:04.603Z,0
2018-01-05T20:07:07.741Z,0
2018-01-05T20:08:10.746Z,0
2018-01-05T20:09:13.703Z,0
2018-01-05T20:10:16.666Z,0
2018-01-05T20:11:20.932Z,0
2018-01-05T20:12:25.645Z,0
2018-01-05T20:13:31.149Z,0
2018-01-05T20:14:35.929Z,0
2018-01-05T20:15:41.296Z,0
2018-01-05T20:16:46.323Z,0
2018-01-05T20:17:51.923Z,0
2018-01-05T20:18:57.184Z,0
2018-01-05T20:20:02.983Z,0
2018-01-05T20:21:09.178Z,0
2018-01-05T20:22:15.046Z,0
2018-01-05T20:23:21.113Z,0
2018-01-05T20:24:27.008Z,0
2018-01-05T20:25:32.725Z,0
2018-01-05T20:26:37.905Z,0
2018-01-05T20:27:43.313Z,0
2018-01-05T20:28:48.693Z,0
2018-01-05T20:29:54.178Z,0
2018-01-05T20:31:00.117Z,0
2018-01-05T20:32:05.528Z,0
2018-01-05T20:33:10.818Z,0
2018-01-05T20:34:16.306Z,0
2018-01-05T20:35:20.519Z,0
2018-01-05T20:36:25.404Z,0
2018-01-05T20:37:30.526Z,0
2018-01-05T20:38:36.015Z,0
2018-01-05T20:39:41.434Z,0
2018-01-05T20:40:46.720Z,0
2018-01-05T20:41:52.021Z,0
2018-01-05T20:42:57.423Z,0
2018-01-05T20:44:02.850Z,0
2018-01-05T20:45:08.752Z,0
2018-01-05T20:46:14.686Z,0
2018-01-05T20:47:18.436Z,0
2018-01-05T20:48:21.336Z,0
2018-01-05T20:49:24.040Z,0
2018-01-05T20:50:26.849Z,0
2018-01-05T20:51:29.609Z,0
2018-01-05T20:52:32.319Z,0
2018-01-05T20:53:37.325Z,0
2018-01-05T20:54:41.895Z,0
2018-01-05T20:55:47.067Z,0
2018-01-05T20:56:51.834Z,0
2018-01-05T20:57:57.151Z,0
2018-01-05T20:59:01.364Z,0
2018-01-05T21:00:07.099Z,0
2018-01-05T21:01:12.958Z,0
2018-01-05T21:02:18.880Z,0
2018-01-05T21:03:25.408Z,0
2018-01-05T21:04:30.360Z,0
2018-01-05T21:05:36.067Z,0
2018-01-05T21:06:41.232Z,0
2018-01-05T21:07:46.928Z,0
2018-01-05T21:08:52.787Z,0
2018-01-05T21:09:58.791Z,0
2018-01-05T21:11:04.227Z,0
2018-01-05T21:12:11.079Z,0
2018-01-05T21:13:16.766Z,0
2018-01-05T21:14:22.361Z,0
2018-01-05T21:15:28.008Z,0
2018-01-05T21:16:34.044Z,0
2018-01-05T21:17:39.329Z,0
2018-01-05T21:18:44.427Z,0